Time;durP1;ratioP1;P1;durP2;ratioP2;P2;SDS_P1;SDS_P2;PMS_P1;PMS_P2;Temp;Humidity;BMP_temperature;BMP_pressure;BME280_temperature;BME280_humidity;BME280_pressure;Samples;Min_cycle;Max_cycle;Signal;HPM_P1;HPM_P2
2023/10/02 00:01:58;;;;;;;12.75;7.07;;;17.30;99.90;;;;;;5075949;28;20393;-72
2023/10/02 00:04:24;;;;;;;14.82;7.35;;;17.20;99.90;;;;;;5075600;28;20045;-72
2023/10/02 00:07:05;;;;;;;15.27;7.80;;;17.20;99.90;;;;;;5075596;28;20044;-73
2023/10/02 00:09:41;;;;;;;15.32;8.35;;;17.20;99.90;;;;;;5076346;28;20074;-73
2023/10/02 00:12:14;;;;;;;13.90;7.85;;;17.10;99.90;;;;;;5074788;28;20049;-72
2023/10/02 00:14:41;;;;;;;16.25;7.80;;;17.10;99.90;;;;;;5076037;28;20114;-72
2023/10/02 00:17:13;;;;;;;16.38;8.13;;;17.20;99.90;;;;;;5073804;28;20049;-73
2023/10/02 00:19:44;;;;;;;16.45;8.10;;;17.20;99.90;;;;;;5074622;28;20440;-72
2023/10/02 00:22:34;;;;;;;14.20;8.35;;;17.20;99.90;;;;;;5075104;28;20044;-72
2023/10/02 00:25:09;;;;;;;12.82;7.25;;;17.10;99.90;;;;;;5075028;28;20094;-72
2023/10/02 00:27:37;;;;;;;14.57;7.40;;;17.00;99.90;;;;;;5075203;28;20049;-72
2023/10/02 00:30:07;;;;;;;12.35;7.43;;;16.90;99.90;;;;;;5075857;28;20052;-72
2023/10/02 00:32:34;;;;;;;13.07;7.55;;;16.80;99.90;;;;;;5074957;28;20560;-72
2023/10/02 00:35:02;;;;;;;13.52;7.03;;;16.80;99.90;;;;;;5074874;28;20044;-72
2023/10/02 00:37:44;;;;;;;13.77;7.43;;;16.80;99.90;;;;;;5075164;28;20490;-73
2023/10/02 00:40:21;;;;;;;14.50;7.47;;;16.70;99.90;;;;;;5074948;28;20113;-73
2023/10/02 00:42:58;;;;;;;14.10;7.75;;;16.80;99.90;;;;;;5075403;28;20110;-72
2023/10/02 00:45:42;;;;;;;15.55;7.22;;;16.80;99.90;;;;;;5075165;28;20446;-73
2023/10/02 00:48:28;;;;;;;15.00;8.07;;;16.80;99.90;;;;;;5074832;28;20098;-72
2023/10/02 00:50:58;;;;;;;16.67;7.82;;;16.90;99.90;;;;;;5074756;28;20098;-72
2023/10/02 00:53:38;;;;;;;14.93;7.25;;;16.90;99.90;;;;;;5075154;28;20131;-72
2023/10/02 00:56:20;;;;;;;15.05;7.38;;;17.00;99.90;;;;;;5075130;28;20098;-72
2023/10/02 00:59:00;;;;;;;14.70;7.60;;;17.00;99.90;;;;;;5075075;28;20048;-72
2023/10/02 01:01:31;;;;;;;12.93;6.57;;;17.00;99.90;;;;;;5074954;28;20036;-74
2023/10/02 01:04:09;;;;;;;12.25;6.72;;;17.10;99.90;;;;;;5057117;28;20052;-72
2023/10/02 01:09:28;;;;;;;12.93;7.50;;;17.10;99.90;;;;;;5075139;28;20444;-72
2023/10/02 01:11:57;;;;;;;13.70;7.10;;;17.10;99.90;;;;;;5074830;28;20420;-72
2023/10/02 01:17:09;;;;;;;12.88;6.57;;;17.10;99.90;;;;;;5074763;28;20060;-72
2023/10/02 01:19:54;;;;;;;14.30;7.20;;;17.10;99.90;;;;;;5073211;28;20489;-72
2023/10/02 01:22:39;;;;;;;13.23;7.53;;;17.10;99.90;;;;;;5073260;28;20044;-72
2023/10/02 01:25:14;;;;;;;11.70;7.03;;;17.00;99.90;;;;;;5074121;28;20056;-72
2023/10/02 01:27:47;;;;;;;12.63;7.10;;;17.00;99.90;;;;;;5073420;28;20067;-73
2023/10/02 01:30:17;;;;;;;14.35;7.65;;;16.90;99.90;;;;;;5074559;28;20040;-73
2023/10/02 01:35:48;;;;;;;13.13;7.40;;;16.80;99.90;;;;;;5073890;28;20059;-72
2023/10/02 01:38:30;;;;;;;14.15;8.05;;;16.70;99.90;;;;;;5074934;28;20127;-72
2023/10/02 01:41:03;;;;;;;14.13;7.55;;;16.60;99.90;;;;;;5073839;28;20052;-72
2023/10/02 01:43:32;;;;;;;15.70;7.82;;;16.60;99.90;;;;;;5073851;28;20044;-72
2023/10/02 01:46:00;;;;;;;14.95;7.53;;;16.60;99.90;;;;;;5074277;28;20087;-72
2023/10/02 01:48:37;;;;;;;16.70;8.00;;;16.60;99.90;;;;;;5073732;28;20126;-72
2023/10/02 01:51:20;;;;;;;14.88;7.70;;;16.60;99.90;;;;;;5074541;28;20084;-72
2023/10/02 01:53:54;;;;;;;13.88;7.57;;;16.70;99.90;;;;;;5074898;28;20135;-71
2023/10/02 01:56:22;;;;;;;16.10;7.50;;;16.70;99.90;;;;;;5073341;28;20044;-73
2023/10/02 01:58:50;;;;;;;16.35;7.50;;;16.70;99.90;;;;;;5072472;28;20454;-73
2023/10/02 02:01:16;;;;;;;14.40;7.68;;;16.80;99.90;;;;;;5073587;28;20083;-72
2023/10/02 02:03:55;;;;;;;13.20;7.53;;;16.80;99.90;;;;;;5073575;28;20045;-72
2023/10/02 02:06:23;;;;;;;15.23;7.43;;;16.70;99.90;;;;;;5072852;28;20048;-71
2023/10/02 02:08:56;;;;;;;13.27;7.38;;;16.80;99.90;;;;;;5073586;28;20048;-73
2023/10/02 02:11:23;;;;;;;17.52;7.72;;;16.80;99.90;;;;;;5073600;28;20098;-72
2023/10/02 02:13:53;;;;;;;13.57;7.40;;;16.80;99.90;;;;;;5073470;28;20123;-72
2023/10/02 02:16:31;;;;;;;16.92;7.88;;;16.80;99.90;;;;;;5073287;28;20080;-72
2023/10/02 02:18:58;;;;;;;14.48;7.88;;;16.80;99.90;;;;;;5073529;28;20123;-73
2023/10/02 02:21:24;;;;;;;15.90;8.27;;;16.80;99.90;;;;;;5073480;28;20049;-72
2023/10/02 02:24:03;;;;;;;17.33;7.72;;;16.90;99.90;;;;;;5073368;28;20083;-72
2023/10/02 02:26:31;;;;;;;16.40;8.23;;;16.90;99.90;;;;;;5074015;28;20056;-72
2023/10/02 02:28:57;;;;;;;13.60;7.60;;;16.90;99.90;;;;;;5072417;28;20082;-72
2023/10/02 02:31:32;;;;;;;13.43;7.93;;;16.90;99.90;;;;;;5072649;28;20059;-72
2023/10/02 02:34:03;;;;;;;17.33;8.65;;;17.00;99.90;;;;;;5074180;28;20071;-72
2023/10/02 02:36:35;;;;;;;13.32;8.00;;;17.00;99.90;;;;;;5073267;28;20436;-72
2023/10/02 02:39:15;;;;;;;15.68;7.55;;;16.90;99.90;;;;;;5072996;28;20651;-73
2023/10/02 02:42:18;;;;;;;16.98;8.65;;;16.90;99.90;;;;;;5074077;28;20464;-72
2023/10/02 02:44:50;;;;;;;13.88;7.60;;;16.90;99.90;;;;;;5073475;28;20428;-72
2023/10/02 02:47:21;;;;;;;14.85;7.70;;;16.80;99.90;;;;;;5073237;28;20048;-72
2023/10/02 02:49:52;;;;;;;14.38;7.93;;;16.80;99.90;;;;;;5073780;28;20051;-72
2023/10/02 02:52:21;;;;;;;14.20;7.70;;;16.80;99.90;;;;;;5073363;28;20056;-72
2023/10/02 02:54:47;;;;;;;15.43;8.18;;;16.70;99.90;;;;;;5072037;28;20044;-72
2023/10/02 02:57:25;;;;;;;15.90;8.55;;;16.70;99.90;;;;;;5072985;28;20044;-72
2023/10/02 03:00:24;;;;;;;14.32;8.25;;;16.60;99.90;;;;;;5073685;28;20079;-72
2023/10/02 03:02:44;;;;;;;11.90;7.50;;;16.60;99.90;;;;;;5073093;28;20162;-72
2023/10/02 03:05:11;;;;;;;18.73;8.27;;;16.50;99.90;;;;;;5055026;28;20060;-73
2023/10/02 03:07:39;;;;;;;15.10;8.40;;;16.50;99.90;;;;;;5073941;28;20049;-73
2023/10/02 03:10:10;;;;;;;17.50;7.93;;;16.50;99.90;;;;;;5076649;28;20045;-73
2023/10/02 03:12:44;;;;;;;17.45;7.85;;;16.50;99.90;;;;;;5077193;28;20044;-73
2023/10/02 03:15:12;;;;;;;15.23;8.13;;;16.50;99.90;;;;;;5076159;28;20087;-74
2023/10/02 03:17:41;;;;;;;15.77;8.02;;;16.40;99.90;;;;;;5076444;28;20052;-73
2023/10/02 03:20:24;;;;;;;17.08;8.35;;;16.40;99.90;;;;;;5076345;28;20075;-74
2023/10/02 03:22:55;;;;;;;15.20;7.93;;;16.40;99.90;;;;;;5077015;28;20040;-71
2023/10/02 03:25:28;;;;;;;14.80;8.70;;;16.30;99.90;;;;;;5076685;28;20055;-73
2023/10/02 03:27:57;;;;;;;11.30;7.85;;;16.30;99.90;;;;;;5076334;28;20048;-73
2023/10/02 03:30:38;;;;;;;15.55;8.07;;;16.30;99.90;;;;;;5075472;28;20129;-73
2023/10/02 03:33:17;;;;;;;14.75;8.32;;;16.30;99.90;;;;;;5076396;28;20397;-70
2023/10/02 03:36:10;;;;;;;16.75;7.60;;;16.30;99.90;;;;;;5076229;28;20084;-71
2023/10/02 03:38:48;;;;;;;15.63;7.97;;;16.30;99.90;;;;;;5076938;28;20059;-72
2023/10/02 03:41:14;;;;;;;15.73;8.00;;;16.30;99.90;;;;;;5075811;28;20422;-72
2023/10/02 03:43:48;;;;;;;16.02;8.25;;;16.20;99.90;;;;;;5076009;28;20053;-72
2023/10/02 03:46:22;;;;;;;13.30;8.20;;;16.20;99.90;;;;;;5076808;28;20051;-71
2023/10/02 03:48:51;;;;;;;15.00;8.02;;;16.10;99.90;;;;;;5076018;28;20052;-71
2023/10/02 03:51:36;;;;;;;13.77;7.65;;;16.00;99.90;;;;;;5075854;28;20440;-72
2023/10/02 03:54:18;;;;;;;12.52;7.07;;;16.00;99.90;;;;;;5076412;28;20129;-72
2023/10/02 03:56:48;;;;;;;14.82;7.80;;;15.90;99.90;;;;;;5074855;28;20041;-72
2023/10/02 03:59:22;;;;;;;15.55;8.32;;;15.90;99.90;;;;;;5075083;28;20132;-72
2023/10/02 04:01:50;;;;;;;14.95;8.00;;;15.90;99.90;;;;;;5075596;28;20062;-72
2023/10/02 04:04:19;;;;;;;17.13;8.85;;;15.80;99.90;;;;;;5076515;28;20106;-72
2023/10/02 04:06:54;;;;;;;14.98;8.10;;;15.80;99.90;;;;;;5075560;28;20051;-72
2023/10/02 04:11:50;;;;;;;15.35;8.07;;;15.70;99.90;;;;;;5075372;28;20111;-73
2023/10/02 04:14:17;;;;;;;16.23;8.40;;;15.70;99.90;;;;;;5075680;28;20044;-72
2023/10/02 04:16:51;;;;;;;16.15;8.35;;;15.60;99.90;;;;;;5075295;28;20040;-72
2023/10/02 04:19:24;;;;;;;14.77;8.65;;;15.60;99.90;;;;;;5075277;28;20045;-72
2023/10/02 04:21:53;;;;;;;15.88;7.90;;;15.60;99.90;;;;;;5075358;28;20044;-73
2023/10/02 04:24:25;;;;;;;16.27;8.75;;;15.60;99.90;;;;;;5075220;28;20378;-73
2023/10/02 04:27:14;;;;;;;18.90;9.35;;;15.60;99.90;;;;;;5075343;28;20056;-73
2023/10/02 04:29:48;;;;;;;17.23;9.20;;;15.50;99.90;;;;;;5075142;28;20473;-73
2023/10/02 04:32:19;;;;;;;16.98;8.25;;;15.60;99.90;;;;;;5075914;28;20377;-73
2023/10/02 04:34:56;;;;;;;14.88;7.97;;;15.60;99.90;;;;;;5075678;28;20044;-72
2023/10/02 04:37:22;;;;;;;16.20;8.60;;;15.60;99.90;;;;;;5075247;28;20052;-73
2023/10/02 04:42:25;;;;;;;18.38;9.13;;;15.60;99.90;;;;;;5075655;28;20052;-72
2023/10/02 04:44:58;;;;;;;16.45;9.02;;;15.60;99.90;;;;;;5074140;28;20049;-72
2023/10/02 04:47:30;;;;;;;19.15;9.52;;;15.60;99.90;;;;;;5074434;28;20546;-73
2023/10/02 04:55:23;;;;;;;16.55;8.90;;;15.70;99.90;;;;;;5074544;28;20095;-72
2023/10/02 04:57:50;;;;;;;16.92;8.93;;;15.70;99.90;;;;;;5074467;28;20056;-73
2023/10/02 05:00:32;;;;;;;17.58;9.60;;;15.70;99.90;;;;;;5074807;28;20123;-73
2023/10/02 05:05:49;;;;;;;17.63;8.93;;;15.70;99.90;;;;;;5074430;28;20048;-73
2023/10/02 05:11:26;;;;;;;17.05;8.40;;;15.70;99.90;;;;;;5063001;28;20052;-73
2023/10/02 05:16:33;;;;;;;16.92;8.63;;;15.60;99.90;;;;;;5074076;28;20098;-73
2023/10/02 05:19:01;;;;;;;16.08;8.30;;;15.60;99.90;;;;;;5073087;28;20051;-73
2023/10/02 05:21:36;;;;;;;15.52;8.57;;;15.50;99.90;;;;;;5074119;28;20481;-73
2023/10/02 05:24:05;;;;;;;15.65;8.55;;;15.50;99.90;;;;;;5074070;28;20052;-72
2023/10/02 05:26:38;;;;;;;17.85;9.05;;;15.50;99.90;;;;;;5073856;28;20523;-72
2023/10/02 05:29:06;;;;;;;14.95;9.38;;;15.50;99.90;;;;;;5074082;28;20040;-72
2023/10/02 05:31:35;;;;;;;17.08;9.00;;;15.40;99.90;;;;;;5073679;28;20052;-72
2023/10/02 05:34:07;;;;;;;18.25;8.90;;;15.50;99.90;;;;;;5073640;28;20088;-72
2023/10/02 05:36:35;;;;;;;16.67;8.88;;;15.50;99.90;;;;;;5074133;28;20040;-72
2023/10/02 05:41:47;;;;;;;20.25;9.30;;;15.40;99.90;;;;;;5074599;28;20532;-73
2023/10/02 05:44:20;;;;;;;18.92;9.43;;;15.40;99.90;;;;;;5073832;28;20083;-72
2023/10/02 05:47:07;;;;;;;17.15;8.32;;;15.40;99.90;;;;;;5074032;28;20040;-72
2023/10/02 05:49:43;;;;;;;15.55;8.55;;;15.40;99.90;;;;;;5073047;28;20052;-71
2023/10/02 05:52:09;;;;;;;;;;;15.40;99.90;;;;;;5074226;28;20477;-73
2023/10/02 05:54:37;;;;;;;16.87;9.33;;;15.40;99.90;;;;;;5073674;28;19927;-72
2023/10/02 05:57:10;;;;;;;17.45;9.25;;;15.40;99.90;;;;;;5073541;28;20044;-72
2023/10/02 05:59:44;;;;;;;17.15;8.43;;;15.50;99.90;;;;;;5074202;28;20113;-72
2023/10/02 06:02:22;;;;;;;14.27;8.20;;;15.50;99.90;;;;;;5073752;28;20048;-72
2023/10/02 06:04:53;;;;;;;15.73;8.70;;;15.50;99.90;;;;;;5073310;28;20052;-72
2023/10/02 06:10:08;;;;;;;;;;;15.60;99.90;;;;;;5073981;28;20106;-73
2023/10/02 06:12:42;;;;;;;16.90;9.10;;;15.60;99.90;;;;;;5072191;28;20011;-72
2023/10/02 06:15:43;;;;;;;16.70;9.00;;;15.60;99.90;;;;;;5073966;28;20048;-65
2023/10/02 06:17:56;;;;;;;16.38;8.50;;;15.60;99.90;;;;;;5073321;28;20051;-65
2023/10/02 06:20:22;;;;;;;16.15;8.55;;;15.60;99.90;;;;;;5073445;28;20107;-65
2023/10/02 06:22:50;;;;;;;16.90;9.13;;;15.70;99.90;;;;;;5073335;28;20083;-65
2023/10/02 06:25:19;;;;;;;16.27;8.40;;;15.70;99.90;;;;;;5073355;28;20044;-65
2023/10/02 06:27:47;;;;;;;17.20;8.60;;;15.70;99.90;;;;;;5073208;28;20131;-65
2023/10/02 06:30:18;;;;;;;15.63;8.52;;;15.70;99.90;;;;;;5074059;28;20090;-64
2023/10/02 06:32:55;;;;;;;15.70;7.88;;;15.80;99.90;;;;;;5073578;28;20439;-64
2023/10/02 06:35:21;;;;;;;16.60;9.68;;;15.80;99.90;;;;;;5072152;28;20054;-65
2023/10/02 06:37:51;;;;;;;19.35;8.82;;;15.90;99.90;;;;;;5073325;28;20080;-66
2023/10/02 06:40:21;;;;;;;15.70;8.70;;;15.90;99.90;;;;;;5073600;28;20084;-65
2023/10/02 06:42:52;;;;;;;15.30;8.15;;;15.90;99.90;;;;;;5074889;28;20401;-66
2023/10/02 06:45:20;;;;;;;15.60;8.65;;;16.00;99.90;;;;;;5077017;28;20052;-66
2023/10/02 06:47:48;;;;;;;14.98;8.50;;;16.00;99.90;;;;;;5077033;28;20401;-65
2023/10/02 06:50:32;;;;;;;15.40;8.85;;;16.00;99.90;;;;;;5077000;28;20044;-65
2023/10/02 06:52:59;;;;;;;14.63;9.07;;;16.10;99.90;;;;;;5077037;28;20056;-65
2023/10/02 06:55:26;;;;;;;15.95;8.15;;;16.10;99.90;;;;;;5077449;28;20045;-65
2023/10/02 06:57:52;;;;;;;16.13;8.82;;;16.10;99.90;;;;;;5076864;28;20531;-66
2023/10/02 07:00:23;;;;;;;15.55;8.82;;;16.20;99.90;;;;;;5076589;28;20569;-65
2023/10/02 07:02:58;;;;;;;13.40;8.07;;;16.30;99.90;;;;;;5077284;28;20393;-65
2023/10/02 07:05:32;;;;;;;14.98;8.75;;;16.30;99.90;;;;;;5077604;28;20048;-65
2023/10/02 07:08:01;;;;;;;16.38;7.95;;;16.30;99.90;;;;;;5076618;28;20064;-64
2023/10/02 07:10:40;;;;;;;15.93;8.13;;;16.30;99.90;;;;;;5077419;28;20041;-65
2023/10/02 07:13:18;;;;;;;16.80;8.95;;;16.40;99.90;;;;;;5076542;28;20048;-65
2023/10/02 07:15:45;;;;;;;14.90;7.88;;;16.30;99.90;;;;;;5076537;28;20124;-65
2023/10/02 07:18:12;;;;;;;17.08;8.95;;;16.40;99.90;;;;;;5076410;28;20045;-65
2023/10/02 07:20:42;;;;;;;14.68;8.30;;;16.40;99.90;;;;;;5076406;28;20052;-64
2023/10/02 07:23:19;;;;;;;16.77;8.70;;;16.50;99.90;;;;;;5077273;28;20053;-65
2023/10/02 07:25:50;;;;;;;14.77;8.40;;;16.50;99.90;;;;;;5076694;28;20040;-66
2023/10/02 07:28:23;;;;;;;16.52;8.45;;;16.60;99.90;;;;;;5076834;28;20045;-65
2023/10/02 07:30:53;;;;;;;16.30;8.07;;;16.60;99.90;;;;;;5075681;28;20139;-66
2023/10/02 07:33:19;;;;;;;16.77;8.45;;;16.60;99.90;;;;;;5076157;28;20095;-66
2023/10/02 07:35:52;;;;;;;16.50;7.72;;;16.80;99.90;;;;;;5076289;28;20047;-66
2023/10/02 07:38:29;;;;;;;16.60;8.20;;;16.80;99.90;;;;;;5075458;28;20047;-65
2023/10/02 07:40:57;;;;;;;15.90;8.77;;;16.80;99.90;;;;;;5075991;28;20066;-65
2023/10/02 07:43:24;;;;;;;12.90;7.88;;;16.80;99.90;;;;;;5075718;28;20365;-65
2023/10/02 07:46:02;;;;;;;14.65;8.13;;;16.90;99.90;;;;;;5076510;28;20127;-64
2023/10/02 07:48:33;;;;;;;15.45;8.10;;;16.90;99.90;;;;;;5076235;28;20059;-65
2023/10/02 07:51:00;;;;;;;14.32;7.88;;;17.00;99.90;;;;;;5076407;28;20385;-65
2023/10/02 07:53:38;;;;;;;14.82;8.10;;;17.10;99.90;;;;;;5075221;28;20083;-64
2023/10/02 07:56:06;;;;;;;14.45;9.02;;;17.10;99.90;;;;;;5075540;28;20055;-65
2023/10/02 07:58:33;;;;;;;16.27;9.25;;;17.20;99.90;;;;;;5075629;28;20041;-65
2023/10/02 08:01:06;;;;;;;14.52;8.38;;;17.20;99.90;;;;;;5076048;28;20091;-65
2023/10/02 08:03:36;;;;;;;14.32;8.02;;;17.20;99.90;;;;;;5076194;28;20063;-64
2023/10/02 08:06:20;;;;;;;17.88;9.27;;;17.20;99.90;;;;;;5075337;28;20150;-65
2023/10/02 08:09:35;;;;;;;17.95;8.88;;;17.20;99.90;;;;;;5075910;28;20118;-65
2023/10/02 08:11:37;;;;;;;16.95;8.98;;;17.20;99.90;;;;;;5075006;28;20135;-65
2023/10/02 08:14:03;;;;;;;15.32;8.57;;;17.30;99.90;;;;;;5075311;28;20036;-65
2023/10/02 08:16:33;;;;;;;13.55;8.18;;;17.40;99.90;;;;;;5075327;28;20045;-65
2023/10/02 08:19:01;;;;;;;18.02;10.18;;;17.40;99.90;;;;;;5074387;28;20390;-65
2023/10/02 08:21:35;;;;;;;15.30;9.10;;;17.50;99.90;;;;;;5075275;28;20079;-65
2023/10/02 08:24:05;;;;;;;17.23;9.20;;;17.60;99.90;;;;;;5075576;28;20405;-65
2023/10/02 08:26:38;;;;;;;17.38;9.85;;;17.60;99.90;;;;;;5074032;28;20076;-64
2023/10/02 08:29:10;;;;;;;15.10;8.98;;;17.70;99.90;;;;;;5075244;28;20049;-65
2023/10/02 08:31:43;;;;;;;14.90;9.05;;;17.80;99.90;;;;;;5075095;28;20048;-65
2023/10/02 08:34:24;;;;;;;16.77;9.77;;;17.70;99.90;;;;;;5074884;28;20051;-65
2023/10/02 08:37:05;;;;;;;18.00;9.93;;;17.80;99.90;;;;;;5075012;28;20115;-65
2023/10/02 08:39:40;;;;;;;19.90;8.82;;;17.70;99.90;;;;;;5073839;28;20084;-66
2023/10/02 08:42:10;;;;;;;15.15;9.02;;;17.70;99.90;;;;;;5075352;28;20363;-66
2023/10/02 08:44:38;;;;;;;16.98;9.73;;;17.80;99.90;;;;;;5075509;28;20102;-65
2023/10/02 08:47:11;;;;;;;14.82;8.60;;;17.90;99.90;;;;;;5074767;28;20105;-65
2023/10/02 08:49:38;;;;;;;16.45;9.20;;;18.00;99.90;;;;;;5074726;28;20047;-65
2023/10/02 08:52:08;;;;;;;15.73;9.40;;;18.10;99.90;;;;;;5075168;28;20044;-65
2023/10/02 08:54:34;;;;;;;18.40;9.75;;;18.20;99.90;;;;;;5074640;28;20401;-65
2023/10/02 08:57:08;;;;;;;16.08;9.00;;;18.20;99.90;;;;;;5075084;28;20047;-65
2023/10/02 08:59:41;;;;;;;18.52;10.23;;;18.30;99.90;;;;;;5073887;28;20359;-66
2023/10/02 09:02:11;;;;;;;15.40;9.10;;;18.20;99.90;;;;;;5074517;28;20052;-66
2023/10/02 09:04:38;;;;;;;15.82;8.93;;;18.20;99.90;;;;;;5074534;28;20059;-65
2023/10/02 09:07:15;;;;;;;17.45;9.32;;;18.20;99.90;;;;;;5074240;28;20477;-65
2023/10/02 09:09:45;;;;;;;16.52;9.65;;;18.30;99.90;;;;;;5074919;28;20056;-65
2023/10/02 09:12:17;;;;;;;16.73;8.77;;;18.40;99.90;;;;;;5075008;28;20101;-64
2023/10/02 09:14:43;;;;;;;16.67;8.90;;;18.50;99.90;;;;;;5074177;28;20131;-64
2023/10/02 09:19:41;;;;;;;20.05;9.82;;;18.70;99.90;;;;;;5074801;28;20133;-65
2023/10/02 09:22:14;;;;;;;17.52;9.75;;;18.80;99.90;;;;;;5073452;28;20048;-65
2023/10/02 09:24:41;;;;;;;19.02;10.10;;;18.90;99.90;;;;;;5074710;28;20055;-66
2023/10/02 09:27:54;;;;;;;14.50;9.23;;;18.90;99.90;;;;;;5074001;28;20044;-65
2023/10/02 09:30:21;;;;;;;16.52;9.75;;;19.10;99.90;;;;;;5072927;28;20059;-66
2023/10/02 09:32:51;;;;;;;20.23;9.43;;;19.10;99.90;;;;;;5074054;28;20052;-65
2023/10/02 09:35:23;;;;;;;15.45;8.68;;;19.10;99.90;;;;;;5072599;28;20049;-65
2023/10/02 09:37:55;;;;;;;15.98;9.73;;;19.00;99.90;;;;;;5073954;28;20131;-65
2023/10/02 09:40:24;;;;;;;18.50;9.88;;;19.00;99.90;;;;;;5074261;28;20060;-66
2023/10/02 09:42:56;;;;;;;18.60;10.32;;;19.00;99.90;;;;;;5073658;28;20052;-65
2023/10/02 09:45:31;;;;;;;20.23;9.73;;;19.10;99.90;;;;;;5074407;28;20090;-66
2023/10/02 09:47:59;;;;;;;16.05;9.38;;;19.30;99.90;;;;;;5074628;28;20048;-65
2023/10/02 09:50:29;;;;;;;17.98;11.13;;;19.40;99.90;;;;;;5073599;28;20045;-65
2023/10/02 09:53:00;;;;;;;20.08;11.32;;;19.40;99.90;;;;;;5073837;28;20052;-66
2023/10/02 09:55:37;;;;;;;20.10;10.68;;;19.60;99.90;;;;;;5073629;28;20040;-66
2023/10/02 09:58:06;;;;;;;18.27;11.77;;;19.80;99.90;;;;;;5074163;28;20056;-66
2023/10/02 10:00:36;;;;;;;20.75;11.15;;;19.80;99.90;;;;;;5073305;28;20500;-66
2023/10/02 10:03:22;;;;;;;20.55;11.07;;;19.80;99.90;;;;;;5072535;28;20493;-67
2023/10/02 10:06:06;;;;;;;18.55;11.27;;;20.10;99.90;;;;;;5073519;28;20052;-65
2023/10/02 10:11:44;;;;;;;22.85;11.60;;;20.00;99.90;;;;;;5073524;28;20088;-65
2023/10/02 10:14:37;;;;;;;21.00;11.90;;;19.80;99.90;;;;;;5072538;28;20374;-66
2023/10/02 10:17:14;;;;;;;21.70;12.15;;;19.70;99.90;;;;;;5074402;28;20048;-68
2023/10/02 10:22:55;;;;;;;19.02;11.02;;;19.60;99.90;;;;;;5068298;28;20083;-66
2023/10/02 10:27:58;;;;;;;20.88;12.77;;;19.60;99.90;;;;;;5077301;28;20059;-66
2023/10/02 10:35:35;;;;;;;20.15;12.10;;;19.80;99.90;;;;;;5077430;28;20052;-66
2023/10/02 10:38:07;;;;;;;19.65;12.23;;;19.90;99.90;;;;;;5077178;28;20055;-66
2023/10/02 10:40:46;;;;;;;18.02;11.18;;;20.10;99.90;;;;;;5076816;28;20492;-66
2023/10/02 10:43:14;;;;;;;20.35;10.90;;;20.20;99.90;;;;;;5075653;28;20128;-65
2023/10/02 10:45:40;;;;;;;18.70;10.57;;;20.20;99.90;;;;;;5076801;28;20048;-66
2023/10/02 10:48:22;;;;;;;19.90;11.02;;;20.10;99.90;;;;;;5076933;28;20485;-66
2023/10/02 10:51:03;;;;;;;21.48;10.70;;;20.00;99.90;;;;;;5076257;28;20044;-65
2023/10/02 10:53:32;;;;;;;21.70;11.23;;;20.00;99.90;;;;;;5075970;28;20477;-65
2023/10/02 10:56:28;;;;;;;19.65;10.43;;;20.10;99.90;;;;;;5076776;28;20115;-65
2023/10/02 10:59:10;;;;;;;19.00;10.52;;;20.20;99.90;;;;;;5076171;28;20527;-65
2023/10/02 11:01:37;;;;;;;20.05;11.90;;;20.20;99.90;;;;;;5076922;28;20052;-66
2023/10/02 11:04:04;;;;;;;18.35;9.90;;;20.30;99.90;;;;;;5076615;28;20124;-66
2023/10/02 11:06:30;;;;;;;17.95;10.82;;;20.20;99.90;;;;;;5076572;28;20059;-66
2023/10/02 11:09:11;;;;;;;18.92;11.20;;;20.20;99.90;;;;;;5076633;28;20102;-66
2023/10/02 11:11:50;;;;;;;19.13;10.85;;;20.20;99.90;;;;;;5077063;28;20037;-71
2023/10/02 11:14:20;;;;;;;16.63;9.70;;;20.20;99.90;;;;;;5076323;28;20060;-66
2023/10/02 11:16:54;;;;;;;20.55;12.05;;;20.20;99.90;;;;;;5076465;28;20044;-67
2023/10/02 11:22:15;;;;;;;18.40;10.07;;;20.30;99.90;;;;;;5076470;28;20053;-67
2023/10/02 11:24:53;;;;;;;16.38;10.30;;;20.60;99.90;;;;;;5076602;28;20492;-66
2023/10/02 11:27:19;;;;;;;17.73;10.90;;;20.80;99.90;;;;;;5076310;28;20094;-66
2023/10/02 11:30:03;;;;;;;19.30;10.88;;;20.70;99.90;;;;;;5076071;28;20048;-66
2023/10/02 11:32:59;;;;;;;19.55;10.73;;;20.70;99.90;;;;;;5076157;28;20048;-66
2023/10/02 11:35:28;;;;;;;16.95;10.10;;;20.70;99.90;;;;;;5067429;28;20048;-66
2023/10/02 11:37:55;;;;;;;16.02;9.20;;;20.70;99.90;;;;;;5076049;28;20481;-66
2023/10/02 11:40:25;;;;;;;19.73;10.57;;;20.70;99.90;;;;;;5074713;28;20067;-67
2023/10/02 11:42:53;;;;;;;17.08;10.93;;;20.70;99.90;;;;;;5075622;28;20494;-67
2023/10/02 11:45:19;;;;;;;17.38;10.20;;;20.70;99.90;;;;;;5075948;28;20185;-67
2023/10/02 11:47:45;;;;;;;19.27;10.40;;;20.70;99.90;;;;;;5076755;28;20131;-66
2023/10/02 11:50:15;;;;;;;17.27;10.07;;;20.70;99.90;;;;;;5076674;28;20048;-67
2023/10/02 11:52:41;;;;;;;17.80;10.35;;;20.60;99.90;;;;;;5075469;28;20052;-67
2023/10/02 11:55:07;;;;;;;18.20;10.57;;;20.60;99.90;;;;;;5075827;28;20052;-68
2023/10/02 11:57:33;;;;;;;19.70;11.02;;;20.60;99.90;;;;;;5076173;28;20079;-67
2023/10/02 12:00:08;;;;;;;19.60;10.98;;;20.70;99.90;;;;;;5075475;28;20422;-67
2023/10/02 12:02:34;;;;;;;19.77;10.77;;;20.70;99.90;;;;;;5075563;28;20056;-68
2023/10/02 12:05:00;;;;;;;18.73;10.23;;;20.70;99.90;;;;;;5075641;28;20048;-68
2023/10/02 12:07:26;;;;;;;17.88;9.93;;;20.80;99.90;;;;;;5075164;28;20046;-68
2023/10/02 12:09:53;;;;;;;20.27;11.27;;;20.80;99.90;;;;;;5075924;28;20131;-69
2023/10/02 12:12:19;;;;;;;17.40;9.57;;;20.90;99.90;;;;;;5075177;28;20052;-69
2023/10/02 12:14:45;;;;;;;18.00;10.05;;;20.90;99.90;;;;;;5074949;28;20094;-68
2023/10/02 12:17:14;;;;;;;14.55;8.98;;;21.00;99.90;;;;;;5075114;28;20041;-68
2023/10/02 12:19:41;;;;;;;18.88;9.77;;;21.10;99.90;;;;;;5074968;28;20056;-67
2023/10/02 12:22:07;;;;;;;16.63;9.75;;;21.20;99.90;;;;;;5074549;28;20102;-67
2023/10/02 12:24:34;;;;;;;16.20;8.95;;;21.30;99.90;;;;;;5074953;28;20091;-69
2023/10/02 12:27:00;;;;;;;14.93;8.82;;;21.20;99.90;;;;;;5074653;28;20092;-70
2023/10/02 12:29:26;;;;;;;17.30;9.50;;;21.30;99.90;;;;;;5074742;28;20094;-69
2023/10/02 12:31:52;;;;;;;14.52;8.38;;;21.40;99.90;;;;;;5074745;28;20048;-68
2023/10/02 12:34:19;;;;;;;14.77;8.63;;;21.50;99.90;;;;;;5074751;28;20106;-68
2023/10/02 12:36:45;;;;;;;16.67;9.48;;;21.70;99.90;;;;;;5074622;28;20075;-67
2023/10/02 12:39:14;;;;;;;16.45;8.55;;;21.70;99.90;;;;;;5075034;28;20048;-68
2023/10/02 12:41:44;;;;;;;15.95;9.10;;;21.80;99.90;;;;;;5072257;28;20060;-68
2023/10/02 12:44:10;;;;;;;15.07;8.15;;;21.90;99.90;;;;;;5074935;28;20048;-68
2023/10/02 12:46:44;;;;;;;14.65;8.70;;;21.90;99.90;;;;;;5074796;28;20436;-69
2023/10/02 12:49:13;;;;;;;16.05;9.40;;;21.80;99.90;;;;;;5074499;28;20119;-68
2023/10/02 12:51:40;;;;;;;16.17;9.57;;;21.80;99.90;;;;;;5074357;28;20041;-68
2023/10/02 12:54:07;;;;;;;14.73;8.60;;;21.80;99.90;;;;;;5075128;28;20123;-68
2023/10/02 12:56:33;;;;;;;14.43;8.60;;;21.80;99.90;;;;;;5074206;28;20055;-68
2023/10/02 12:58:59;;;;;;;16.52;9.18;;;21.90;99.90;;;;;;5075225;28;20044;-67
2023/10/02 13:01:29;;;;;;;16.80;9.20;;;21.90;99.90;;;;;;5074160;28;20491;-67
2023/10/02 13:03:56;;;;;;;15.05;7.72;;;21.90;99.90;;;;;;5074837;28;20051;-67
2023/10/02 13:06:26;;;;;;;15.05;8.10;;;21.90;99.90;;;;;;5073940;28;20059;-66
2023/10/02 13:08:55;;;;;;;13.27;8.13;;;21.80;99.90;;;;;;5072837;28;20060;-66
2023/10/02 13:11:21;;;;;;;14.05;7.90;;;21.80;99.90;;;;;;5074024;28;20040;-66
2023/10/02 13:13:49;;;;;;;13.55;7.57;;;21.70;99.90;;;;;;5073984;28;20496;-67
2023/10/02 13:16:16;;;;;;;13.38;7.53;;;21.70;99.90;;;;;;5073905;28;20389;-66
2023/10/02 13:18:45;;;;;;;16.42;7.70;;;21.60;99.90;;;;;;5073869;28;20128;-66
2023/10/02 13:21:18;;;;;;;13.68;7.10;;;21.60;99.90;;;;;;5073862;28;20106;-67
2023/10/02 13:23:44;;;;;;;12.23;7.45;;;21.60;99.90;;;;;;5073948;28;20040;-68
2023/10/02 13:26:11;;;;;;;13.45;6.82;;;21.60;99.90;;;;;;5073770;28;20102;-68
2023/10/02 13:28:41;;;;;;;14.45;7.30;;;21.60;99.90;;;;;;5074494;28;20068;-66
2023/10/02 13:31:13;;;;;;;13.45;7.70;;;21.60;99.90;;;;;;5073704;28;20048;-66
2023/10/02 13:33:46;;;;;;;12.52;7.82;;;21.60;99.90;;;;;;5073521;28;20063;-66
2023/10/02 13:36:15;;;;;;;12.00;7.03;;;21.60;99.90;;;;;;5073973;28;20048;-68
2023/10/02 13:38:41;;;;;;;14.88;8.18;;;21.60;99.90;;;;;;5073344;28;20059;-68
2023/10/02 13:41:11;;;;;;;12.43;7.57;;;21.50;99.90;;;;;;5073600;28;20056;-68
2023/10/02 13:43:41;;;;;;;11.95;7.30;;;21.50;99.90;;;;;;5073834;28;20524;-69
2023/10/02 13:46:10;;;;;;;17.02;8.13;;;21.50;99.90;;;;;;5073576;28;20064;-67
2023/10/02 13:48:37;;;;;;;14.02;7.50;;;21.50;99.90;;;;;;5074304;28;20058;-67
2023/10/02 13:51:07;;;;;;;13.00;7.25;;;21.50;99.90;;;;;;5073159;28;20037;-68
2023/10/02 13:53:34;;;;;;;12.93;7.15;;;21.50;99.90;;;;;;5073508;28;20178;-68